sensor_id;sensor_type;location;lat;lon;timestamp;pressure;altitude;pressure_sealevel;temperature
80581;BMP180;1474;51.460;7.150;2023-06-14T00:01:59;100434.00;;;16.60
80581;BMP180;1474;51.460;7.150;2023-06-14T00:04:25;100438.00;;;16.20
80581;BMP180;1474;51.460;7.150;2023-06-14T00:06:51;100448.00;;;16.30
80581;BMP180;1474;51.460;7.150;2023-06-14T00:09:17;100442.00;;;16.50
80581;BMP180;1474;51.460;7.150;2023-06-14T00:11:44;100448.00;;;16.30
80581;BMP180;1474;51.460;7.150;2023-06-14T00:14:10;100448.00;;;16.20
80581;BMP180;1474;51.460;7.150;2023-06-14T00:16:35;100453.00;;;16.20
80581;BMP180;1474;51.460;7.150;2023-06-14T00:19:02;100452.00;;;16.30
80581;BMP180;1474;51.460;7.150;2023-06-14T00:21:31;100452.00;;;16.50
80581;BMP180;1474;51.460;7.150;2023-06-14T00:23:58;100456.00;;;16.50
80581;BMP180;1474;51.460;7.150;2023-06-14T00:26:25;100458.00;;;16.60
80581;BMP180;1474;51.460;7.150;2023-06-14T00:28:52;100466.00;;;16.90
80581;BMP180;1474;51.460;7.150;2023-06-14T00:31:18;100465.00;;;16.70
80581;BMP180;1474;51.460;7.150;2023-06-14T00:33:44;100461.00;;;16.80
80581;BMP180;1474;51.460;7.150;2023-06-14T00:36:10;100463.00;;;16.90
80581;BMP180;1474;51.460;7.150;2023-06-14T00:38:36;100471.00;;;17.00
80581;BMP180;1474;51.460;7.150;2023-06-14T00:41:02;100468.00;;;17.00
80581;BMP180;1474;51.460;7.150;2023-06-14T00:43:28;100463.00;;;16.90
80581;BMP180;1474;51.460;7.150;2023-06-14T00:45:53;100463.00;;;16.80
80581;BMP180;1474;51.460;7.150;2023-06-14T00:48:20;100462.00;;;16.80
80581;BMP180;1474;51.460;7.150;2023-06-14T00:50:46;100467.00;;;16.90
80581;BMP180;1474;51.460;7.150;2023-06-14T00:53:17;100476.00;;;16.90
80581;BMP180;1474;51.460;7.150;2023-06-14T00:55:43;100471.00;;;16.60
80581;BMP180;1474;51.460;7.150;2023-06-14T00:58:10;100475.00;;;16.60
80581;BMP180;1474;51.460;7.150;2023-06-14T01:00:36;100470.00;;;16.70
80581;BMP180;1474;51.460;7.150;2023-06-14T01:03:02;100472.00;;;16.60
80581;BMP180;1474;51.460;7.150;2023-06-14T01:05:29;100475.00;;;16.70
80581;BMP180;1474;51.460;7.150;2023-06-14T01:08:18;100481.00;;;16.60
80581;BMP180;1474;51.460;7.150;2023-06-14T01:11:14;100477.00;;;16.60
80581;BMP180;1474;51.460;7.150;2023-06-14T01:13:45;100479.00;;;16.60
80581;BMP180;1474;51.460;7.150;2023-06-14T01:16:12;100476.00;;;16.50
80581;BMP180;1474;51.460;7.150;2023-06-14T01:18:38;100478.00;;;16.70
80581;BMP180;1474;51.460;7.150;2023-06-14T01:21:04;100479.00;;;16.50
80581;BMP180;1474;51.460;7.150;2023-06-14T01:23:32;100475.00;;;16.50
80581;BMP180;1474;51.460;7.150;2023-06-14T01:25:59;100478.00;;;16.60
80581;BMP180;1474;51.460;7.150;2023-06-14T01:28:28;100475.00;;;16.40
80581;BMP180;1474;51.460;7.150;2023-06-14T01:31:01;100478.00;;;16.40
80581;BMP180;1474;51.460;7.150;2023-06-14T01:33:31;100477.00;;;16.40
80581;BMP180;1474;51.460;7.150;2023-06-14T01:35:59;100474.00;;;16.40
80581;BMP180;1474;51.460;7.150;2023-06-14T01:38:27;100480.00;;;16.30
80581;BMP180;1474;51.460;7.150;2023-06-14T01:40:56;100477.00;;;16.10
80581;BMP180;1474;51.460;7.150;2023-06-14T01:43:24;100483.00;;;15.80
80581;BMP180;1474;51.460;7.150;2023-06-14T01:45:52;100477.00;;;15.80
80581;BMP180;1474;51.460;7.150;2023-06-14T01:48:20;100478.00;;;15.80
80581;BMP180;1474;51.460;7.150;2023-06-14T01:50:48;100478.00;;;15.80
80581;BMP180;1474;51.460;7.150;2023-06-14T01:53:14;100478.00;;;15.80
80581;BMP180;1474;51.460;7.150;2023-06-14T01:55:40;100484.00;;;15.70
80581;BMP180;1474;51.460;7.150;2023-06-14T01:58:10;100478.00;;;15.60
80581;BMP180;1474;51.460;7.150;2023-06-14T02:00:36;100482.00;;;15.70
80581;BMP180;1474;51.460;7.150;2023-06-14T02:03:02;100476.00;;;15.70
80581;BMP180;1474;51.460;7.150;2023-06-14T02:05:30;100472.00;;;15.50
80581;BMP180;1474;51.460;7.150;2023-06-14T02:07:56;100474.00;;;15.70
80581;BMP180;1474;51.460;7.150;2023-06-14T02:10:22;100476.00;;;15.60
80581;BMP180;1474;51.460;7.150;2023-06-14T02:12:48;100480.00;;;15.60
80581;BMP180;1474;51.460;7.150;2023-06-14T02:15:13;100475.00;;;15.60
80581;BMP180;1474;51.460;7.150;2023-06-14T02:17:43;100474.00;;;15.40
80581;BMP180;1474;51.460;7.150;2023-06-14T02:20:10;100481.00;;;15.30
80581;BMP180;1474;51.460;7.150;2023-06-14T02:22:36;100478.00;;;15.40
80581;BMP180;1474;51.460;7.150;2023-06-14T02:25:02;100487.00;;;15.20
80581;BMP180;1474;51.460;7.150;2023-06-14T02:27:27;100477.00;;;15.20
80581;BMP180;1474;51.460;7.150;2023-06-14T02:29:53;100479.00;;;15.20
80581;BMP180;1474;51.460;7.150;2023-06-14T02:32:19;100486.00;;;15.10
80581;BMP180;1474;51.460;7.150;2023-06-14T02:34:45;100487.00;;;15.10
80581;BMP180;1474;51.460;7.150;2023-06-14T02:37:16;100485.00;;;15.20
80581;BMP180;1474;51.460;7.150;2023-06-14T02:39:42;100487.00;;;15.10
80581;BMP180;1474;51.460;7.150;2023-06-14T02:42:07;100488.00;;;15.00
80581;BMP180;1474;51.460;7.150;2023-06-14T02:44:33;100486.00;;;14.90
80581;BMP180;1474;51.460;7.150;2023-06-14T02:46:59;100485.00;;;14.90
80581;BMP180;1474;51.460;7.150;2023-06-14T02:49:26;100484.00;;;15.10
80581;BMP180;1474;51.460;7.150;2023-06-14T02:51:52;100487.00;;;15.00
80581;BMP180;1474;51.460;7.150;2023-06-14T02:54:18;100480.00;;;14.90
80581;BMP180;1474;51.460;7.150;2023-06-14T02:56:44;100486.00;;;14.90
80581;BMP180;1474;51.460;7.150;2023-06-14T02:59:09;100490.00;;;14.80
80581;BMP180;1474;51.460;7.150;2023-06-14T03:01:35;100487.00;;;14.70
80581;BMP180;1474;51.460;7.150;2023-06-14T03:04:09;100489.00;;;14.70
80581;BMP180;1474;51.460;7.150;2023-06-14T03:06:36;100495.00;;;14.70
80581;BMP180;1474;51.460;7.150;2023-06-14T03:09:03;100503.00;;;14.70
80581;BMP180;1474;51.460;7.150;2023-06-14T03:11:32;100507.00;;;14.80
80581;BMP180;1474;51.460;7.150;2023-06-14T03:13:59;100512.00;;;14.70
80581;BMP180;1474;51.460;7.150;2023-06-14T03:16:25;100510.00;;;14.70
80581;BMP180;1474;51.460;7.150;2023-06-14T03:18:54;100499.00;;;14.60
80581;BMP180;1474;51.460;7.150;2023-06-14T03:21:20;100502.00;;;14.60
80581;BMP180;1474;51.460;7.150;2023-06-14T03:23:47;100508.00;;;14.60
80581;BMP180;1474;51.460;7.150;2023-06-14T03:26:13;100516.00;;;14.60
80581;BMP180;1474;51.460;7.150;2023-06-14T03:28:42;100511.00;;;14.50
80581;BMP180;1474;51.460;7.150;2023-06-14T03:31:08;100514.00;;;14.60
80581;BMP180;1474;51.460;7.150;2023-06-14T03:33:34;100513.00;;;14.50
80581;BMP180;1474;51.460;7.150;2023-06-14T03:36:02;100521.00;;;14.60
80581;BMP180;1474;51.460;7.150;2023-06-14T03:38:28;100521.00;;;14.60
80581;BMP180;1474;51.460;7.150;2023-06-14T03:40:54;100526.00;;;14.70
80581;BMP180;1474;51.460;7.150;2023-06-14T03:43:20;100526.00;;;14.70
80581;BMP180;1474;51.460;7.150;2023-06-14T03:45:46;100533.00;;;14.60
80581;BMP180;1474;51.460;7.150;2023-06-14T03:48:12;100530.00;;;14.60
80581;BMP180;1474;51.460;7.150;2023-06-14T03:50:37;100532.00;;;14.60
80581;BMP180;1474;51.460;7.150;2023-06-14T03:53:04;100539.00;;;14.70
80581;BMP180;1474;51.460;7.150;2023-06-14T03:55:30;100541.00;;;14.70
80581;BMP180;1474;51.460;7.150;2023-06-14T03:57:59;100548.00;;;14.80
80581;BMP180;1474;51.460;7.150;2023-06-14T04:00:25;100541.00;;;14.90
80581;BMP180;1474;51.460;7.150;2023-06-14T04:02:51;100537.00;;;14.90
80581;BMP180;1474;51.460;7.150;2023-06-14T04:05:17;100545.00;;;14.80
80581;BMP180;1474;51.460;7.150;2023-06-14T04:07:45;100554.00;;;15.00
80581;BMP180;1474;51.460;7.150;2023-06-14T04:10:12;100550.00;;;15.00
80581;BMP180;1474;51.460;7.150;2023-06-14T04:12:39;100560.00;;;15.00
80581;BMP180;1474;51.460;7.150;2023-06-14T04:15:06;100563.00;;;15.10
80581;BMP180;1474;51.460;7.150;2023-06-14T04:17:33;100559.00;;;15.10
80581;BMP180;1474;51.460;7.150;2023-06-14T04:20:00;100565.00;;;15.00
80581;BMP180;1474;51.460;7.150;2023-06-14T04:22:26;100562.00;;;15.20
80581;BMP180;1474;51.460;7.150;2023-06-14T04:24:56;100565.00;;;15.20
80581;BMP180;1474;51.460;7.150;2023-06-14T04:27:23;100572.00;;;15.30
80581;BMP180;1474;51.460;7.150;2023-06-14T04:29:54;100571.00;;;15.30
80581;BMP180;1474;51.460;7.150;2023-06-14T04:32:28;100570.00;;;15.30
80581;BMP180;1474;51.460;7.150;2023-06-14T04:34:59;100577.00;;;15.40
80581;BMP180;1474;51.460;7.150;2023-06-14T04:37:29;100574.00;;;15.50
80581;BMP180;1474;51.460;7.150;2023-06-14T04:39:56;100564.00;;;15.70
80581;BMP180;1474;51.460;7.150;2023-06-14T04:42:23;100556.00;;;16.30
80581;BMP180;1474;51.460;7.150;2023-06-14T04:44:51;100557.00;;;16.60
80581;BMP180;1474;51.460;7.150;2023-06-14T04:47:21;100521.00;;;16.90
80581;BMP180;1474;51.460;7.150;2023-06-14T04:49:47;100448.00;;;19.60
80581;BMP180;1474;51.460;7.150;2023-06-14T04:52:13;100532.00;;;19.80
80581;BMP180;1474;51.460;7.150;2023-06-14T04:54:42;100544.00;;;17.70
80581;BMP180;1474;51.460;7.150;2023-06-14T04:57:09;100470.00;;;19.10
80581;BMP180;1474;51.460;7.150;2023-06-14T04:59:40;100456.00;;;19.70
80581;BMP180;1474;51.460;7.150;2023-06-14T05:02:06;100521.00;;;22.00
80581;BMP180;1474;51.460;7.150;2023-06-14T05:04:33;100552.00;;;19.10
80581;BMP180;1474;51.460;7.150;2023-06-14T05:06:59;100470.00;;;19.90
80581;BMP180;1474;51.460;7.150;2023-06-14T05:09:25;100416.00;;;23.80
80581;BMP180;1474;51.460;7.150;2023-06-14T05:11:51;100410.00;;;25.00
80581;BMP180;1474;51.460;7.150;2023-06-14T05:14:16;100417.00;;;26.00
80581;BMP180;1474;51.460;7.150;2023-06-14T05:16:43;100406.00;;;25.90
80581;BMP180;1474;51.460;7.150;2023-06-14T05:19:09;100398.00;;;27.30
80581;BMP180;1474;51.460;7.150;2023-06-14T05:21:36;100413.00;;;26.50
80581;BMP180;1474;51.460;7.150;2023-06-14T05:24:03;100409.00;;;27.60
80581;BMP180;1474;51.460;7.150;2023-06-14T05:26:29;100422.00;;;27.40
80581;BMP180;1474;51.460;7.150;2023-06-14T05:28:56;100418.00;;;26.10
80581;BMP180;1474;51.460;7.150;2023-06-14T05:31:24;100411.00;;;28.70
80581;BMP180;1474;51.460;7.150;2023-06-14T05:33:52;100406.00;;;28.60
80581;BMP180;1474;51.460;7.150;2023-06-14T05:36:19;100429.00;;;28.30
80581;BMP180;1474;51.460;7.150;2023-06-14T05:38:46;100473.00;;;25.80
80581;BMP180;1474;51.460;7.150;2023-06-14T05:41:12;100527.00;;;27.00
80581;BMP180;1474;51.460;7.150;2023-06-14T05:43:38;100502.00;;;25.20
80581;BMP180;1474;51.460;7.150;2023-06-14T05:46:04;100533.00;;;23.90
80581;BMP180;1474;51.460;7.150;2023-06-14T05:48:33;100547.00;;;24.60
80581;BMP180;1474;51.460;7.150;2023-06-14T05:50:59;100615.00;;;25.80
80581;BMP180;1474;51.460;7.150;2023-06-14T05:53:25;100626.00;;;22.50
80581;BMP180;1474;51.460;7.150;2023-06-14T05:55:51;100640.00;;;20.70
80581;BMP180;1474;51.460;7.150;2023-06-14T05:58:21;100650.00;;;19.80
80581;BMP180;1474;51.460;7.150;2023-06-14T06:00:47;100636.00;;;20.00
80581;BMP180;1474;51.460;7.150;2023-06-14T06:03:13;100642.00;;;19.70
80581;BMP180;1474;51.460;7.150;2023-06-14T06:05:39;100634.00;;;19.90
80581;BMP180;1474;51.460;7.150;2023-06-14T06:08:05;100649.00;;;20.30
80581;BMP180;1474;51.460;7.150;2023-06-14T06:10:31;100641.00;;;19.70
80581;BMP180;1474;51.460;7.150;2023-06-14T06:12:57;100641.00;;;20.00
80581;BMP180;1474;51.460;7.150;2023-06-14T06:15:23;100648.00;;;20.10
80581;BMP180;1474;51.460;7.150;2023-06-14T06:17:48;100644.00;;;20.20
80581;BMP180;1474;51.460;7.150;2023-06-14T06:20:14;100643.00;;;20.30
80581;BMP180;1474;51.460;7.150;2023-06-14T06:22:40;100644.00;;;20.20
80581;BMP180;1474;51.460;7.150;2023-06-14T06:25:06;100650.00;;;20.00
80581;BMP180;1474;51.460;7.150;2023-06-14T06:27:33;100647.00;;;19.70
80581;BMP180;1474;51.460;7.150;2023-06-14T06:29:58;100639.00;;;20.20
80581;BMP180;1474;51.460;7.150;2023-06-14T06:32:24;100638.00;;;20.20
80581;BMP180;1474;51.460;7.150;2023-06-14T06:34:50;100650.00;;;20.70
80581;BMP180;1474;51.460;7.150;2023-06-14T06:37:17;100653.00;;;20.20
80581;BMP180;1474;51.460;7.150;2023-06-14T06:39:43;100655.00;;;20.00
80581;BMP180;1474;51.460;7.150;2023-06-14T06:42:09;100671.00;;;20.70
80581;BMP180;1474;51.460;7.150;2023-06-14T06:44:36;100657.00;;;20.40
80581;BMP180;1474;51.460;7.150;2023-06-14T06:47:01;100668.00;;;20.30
80581;BMP180;1474;51.460;7.150;2023-06-14T06:49:28;100665.00;;;20.00
80581;BMP180;1474;51.460;7.150;2023-06-14T06:52:01;100676.00;;;20.00
80581;BMP180;1474;51.460;7.150;2023-06-14T06:54:28;100668.00;;;20.00
80581;BMP180;1474;51.460;7.150;2023-06-14T06:56:53;100674.00;;;19.90
80581;BMP180;1474;51.460;7.150;2023-06-14T06:59:19;100663.00;;;19.80
80581;BMP180;1474;51.460;7.150;2023-06-14T07:01:45;100676.00;;;20.30
80581;BMP180;1474;51.460;7.150;2023-06-14T07:04:12;100679.00;;;20.80
80581;BMP180;1474;51.460;7.150;2023-06-14T07:06:38;100688.00;;;20.30
80581;BMP180;1474;51.460;7.150;2023-06-14T07:09:04;100683.00;;;20.40
80581;BMP180;1474;51.460;7.150;2023-06-14T07:11:33;100670.00;;;20.50
80581;BMP180;1474;51.460;7.150;2023-06-14T07:13:59;100676.00;;;20.50
80581;BMP180;1474;51.460;7.150;2023-06-14T07:16:25;100682.00;;;21.00
80581;BMP180;1474;51.460;7.150;2023-06-14T07:18:52;100672.00;;;20.10
80581;BMP180;1474;51.460;7.150;2023-06-14T07:21:18;100680.00;;;19.90
80581;BMP180;1474;51.460;7.150;2023-06-14T07:23:43;100685.00;;;19.60
80581;BMP180;1474;51.460;7.150;2023-06-14T07:26:09;100686.00;;;20.00
80581;BMP180;1474;51.460;7.150;2023-06-14T07:28:35;100690.00;;;20.10
80581;BMP180;1474;51.460;7.150;2023-06-14T07:31:01;100690.00;;;20.50
80581;BMP180;1474;51.460;7.150;2023-06-14T07:33:28;100680.00;;;20.40
80581;BMP180;1474;51.460;7.150;2023-06-14T07:35:54;100686.00;;;20.60
80581;BMP180;1474;51.460;7.150;2023-06-14T07:38:20;100684.00;;;20.60
80581;BMP180;1474;51.460;7.150;2023-06-14T07:40:46;100689.00;;;20.90
80581;BMP180;1474;51.460;7.150;2023-06-14T07:43:11;100683.00;;;20.50
80581;BMP180;1474;51.460;7.150;2023-06-14T07:45:37;100697.00;;;20.30
80581;BMP180;1474;51.460;7.150;2023-06-14T07:48:04;100677.00;;;20.00
80581;BMP180;1474;51.460;7.150;2023-06-14T07:50:29;100684.00;;;20.30
80581;BMP180;1474;51.460;7.150;2023-06-14T07:52:56;100689.00;;;20.60
80581;BMP180;1474;51.460;7.150;2023-06-14T07:55:22;100692.00;;;20.50
80581;BMP180;1474;51.460;7.150;2023-06-14T07:57:47;100694.00;;;21.10
80581;BMP180;1474;51.460;7.150;2023-06-14T08:00:14;100694.00;;;21.10
80581;BMP180;1474;51.460;7.150;2023-06-14T08:02:44;100691.00;;;20.80
80581;BMP180;1474;51.460;7.150;2023-06-14T08:05:11;100690.00;;;20.30
80581;BMP180;1474;51.460;7.150;2023-06-14T08:07:39;100696.00;;;21.00
80581;BMP180;1474;51.460;7.150;2023-06-14T08:10:06;100701.00;;;20.50
80581;BMP180;1474;51.460;7.150;2023-06-14T08:12:33;100704.00;;;20.80
80581;BMP180;1474;51.460;7.150;2023-06-14T08:15:00;100698.00;;;20.60
80581;BMP180;1474;51.460;7.150;2023-06-14T08:17:26;100688.00;;;20.40
80581;BMP180;1474;51.460;7.150;2023-06-14T08:19:52;100726.00;;;20.50
80581;BMP180;1474;51.460;7.150;2023-06-14T08:22:20;100691.00;;;20.30
80581;BMP180;1474;51.460;7.150;2023-06-14T08:24:47;100700.00;;;21.00
80581;BMP180;1474;51.460;7.150;2023-06-14T08:27:13;100691.00;;;20.90
80581;BMP180;1474;51.460;7.150;2023-06-14T08:29:39;100694.00;;;21.40
80581;BMP180;1474;51.460;7.150;2023-06-14T08:32:06;100692.00;;;21.70
80581;BMP180;1474;51.460;7.150;2023-06-14T08:34:32;100687.00;;;21.00
80581;BMP180;1474;51.460;7.150;2023-06-14T08:36:58;100676.00;;;21.10
80581;BMP180;1474;51.460;7.150;2023-06-14T08:39:24;100694.00;;;20.90
80581;BMP180;1474;51.460;7.150;2023-06-14T08:41:52;100679.00;;;21.70
80581;BMP180;1474;51.460;7.150;2023-06-14T08:44:18;100683.00;;;22.20
80581;BMP180;1474;51.460;7.150;2023-06-14T08:46:44;100681.00;;;21.90
80581;BMP180;1474;51.460;7.150;2023-06-14T08:49:17;100689.00;;;21.70
80581;BMP180;1474;51.460;7.150;2023-06-14T08:51:43;100686.00;;;22.10
80581;BMP180;1474;51.460;7.150;2023-06-14T08:54:11;100679.00;;;21.70
80581;BMP180;1474;51.460;7.150;2023-06-14T08:56:38;100705.00;;;22.70
80581;BMP180;1474;51.460;7.150;2023-06-14T08:59:07;100680.00;;;21.50
80581;BMP180;1474;51.460;7.150;2023-06-14T09:01:35;100667.00;;;22.00
80581;BMP180;1474;51.460;7.150;2023-06-14T09:04:02;100675.00;;;21.40
80581;BMP180;1474;51.460;7.150;2023-06-14T09:06:29;100673.00;;;21.10
80581;BMP180;1474;51.460;7.150;2023-06-14T09:08:55;100681.00;;;21.00
80581;BMP180;1474;51.460;7.150;2023-06-14T09:11:24;100681.00;;;21.10
80581;BMP180;1474;51.460;7.150;2023-06-14T09:13:52;100676.00;;;22.20
80581;BMP180;1474;51.460;7.150;2023-06-14T09:16:18;100675.00;;;21.80
80581;BMP180;1474;51.460;7.150;2023-06-14T09:18:46;100681.00;;;21.30
80581;BMP180;1474;51.460;7.150;2023-06-14T09:21:17;100684.00;;;22.80
80581;BMP180;1474;51.460;7.150;2023-06-14T09:23:46;100670.00;;;21.70
80581;BMP180;1474;51.460;7.150;2023-06-14T09:26:18;100690.00;;;22.10
80581;BMP180;1474;51.460;7.150;2023-06-14T09:28:50;100687.00;;;21.70
80581;BMP180;1474;51.460;7.150;2023-06-14T09:31:20;100668.00;;;22.00
80581;BMP180;1474;51.460;7.150;2023-06-14T09:33:49;100695.00;;;22.70
80581;BMP180;1474;51.460;7.150;2023-06-14T09:36:22;100696.00;;;22.50
80581;BMP180;1474;51.460;7.150;2023-06-14T09:38:56;100687.00;;;21.80
80581;BMP180;1474;51.460;7.150;2023-06-14T09:41:37;100677.00;;;21.80
80581;BMP180;1474;51.460;7.150;2023-06-14T09:44:04;100691.00;;;21.20
80581;BMP180;1474;51.460;7.150;2023-06-14T09:46:31;100716.00;;;21.70
80581;BMP180;1474;51.460;7.150;2023-06-14T09:49:01;100684.00;;;23.10
80581;BMP180;1474;51.460;7.150;2023-06-14T09:51:28;100694.00;;;23.60
80581;BMP180;1474;51.460;7.150;2023-06-14T09:54:03;100687.00;;;22.10
80581;BMP180;1474;51.460;7.150;2023-06-14T09:56:35;100719.00;;;22.50
80581;BMP180;1474;51.460;7.150;2023-06-14T09:59:05;100690.00;;;22.80
80581;BMP180;1474;51.460;7.150;2023-06-14T10:01:35;100680.00;;;22.40
80581;BMP180;1474;51.460;7.150;2023-06-14T10:04:04;100684.00;;;21.60
80581;BMP180;1474;51.460;7.150;2023-06-14T10:06:32;100694.00;;;22.50
80581;BMP180;1474;51.460;7.150;2023-06-14T10:09:04;100701.00;;;22.40
80581;BMP180;1474;51.460;7.150;2023-06-14T10:11:34;100687.00;;;22.60
80581;BMP180;1474;51.460;7.150;2023-06-14T10:14:04;100687.00;;;22.60
80581;BMP180;1474;51.460;7.150;2023-06-14T10:16:33;100696.00;;;22.50
80581;BMP180;1474;51.460;7.150;2023-06-14T10:19:11;100688.00;;;22.60
80581;BMP180;1474;51.460;7.150;2023-06-14T10:22:02;100696.00;;;23.10
80581;BMP180;1474;51.460;7.150;2023-06-14T10:24:41;100683.00;;;23.10
80581;BMP180;1474;51.460;7.150;2023-06-14T10:27:08;100689.00;;;23.10
80581;BMP180;1474;51.460;7.150;2023-06-14T10:32:24;100680.00;;;22.90
80581;BMP180;1474;51.460;7.150;2023-06-14T10:35:04;100686.00;;;22.70
80581;BMP180;1474;51.460;7.150;2023-06-14T10:37:32;100680.00;;;21.70
80581;BMP180;1474;51.460;7.150;2023-06-14T10:39:58;100695.00;;;23.10
80581;BMP180;1474;51.460;7.150;2023-06-14T10:42:31;100685.00;;;22.00
80581;BMP180;1474;51.460;7.150;2023-06-14T10:44:58;100677.00;;;22.10
80581;BMP180;1474;51.460;7.150;2023-06-14T10:50:10;100680.00;;;22.80
80581;BMP180;1474;51.460;7.150;2023-06-14T10:52:40;100664.00;;;22.90
80581;BMP180;1474;51.460;7.150;2023-06-14T10:55:17;100681.00;;;23.40
80581;BMP180;1474;51.460;7.150;2023-06-14T10:57:53;100674.00;;;24.00
80581;BMP180;1474;51.460;7.150;2023-06-14T11:00:28;100676.00;;;23.50
80581;BMP180;1474;51.460;7.150;2023-06-14T11:05:59;100677.00;;;23.50
80581;BMP180;1474;51.460;7.150;2023-06-14T11:09:08;100684.00;;;22.60
80581;BMP180;1474;51.460;7.150;2023-06-14T11:11:42;100689.00;;;22.80
80581;BMP180;1474;51.460;7.150;2023-06-14T11:14:10;100697.00;;;22.20
80581;BMP180;1474;51.460;7.150;2023-06-14T11:16:36;100683.00;;;23.50
80581;BMP180;1474;51.460;7.150;2023-06-14T11:19:02;100675.00;;;23.70
80581;BMP180;1474;51.460;7.150;2023-06-14T11:21:28;100687.00;;;24.00
80581;BMP180;1474;51.460;7.150;2023-06-14T11:23:57;100677.00;;;24.40
80581;BMP180;1474;51.460;7.150;2023-06-14T11:26:31;100685.00;;;23.50
80581;BMP180;1474;51.460;7.150;2023-06-14T11:29:00;100719.00;;;22.20
80581;BMP180;1474;51.460;7.150;2023-06-14T11:31:27;100688.00;;;23.60
80581;BMP180;1474;51.460;7.150;2023-06-14T11:33:55;100669.00;;;23.60
80581;BMP180;1474;51.460;7.150;2023-06-14T11:36:23;100673.00;;;23.00
80581;BMP180;1474;51.460;7.150;2023-06-14T11:38:49;100674.00;;;23.60
80581;BMP180;1474;51.460;7.150;2023-06-14T11:41:15;100677.00;;;23.40
80581;BMP180;1474;51.460;7.150;2023-06-14T11:43:40;100667.00;;;23.90
80581;BMP180;1474;51.460;7.150;2023-06-14T11:46:13;100691.00;;;23.20
80581;BMP180;1474;51.460;7.150;2023-06-14T11:48:43;100681.00;;;23.20
80581;BMP180;1474;51.460;7.150;2023-06-14T11:51:09;100684.00;;;24.10
80581;BMP180;1474;51.460;7.150;2023-06-14T11:53:35;100677.00;;;23.20
80581;BMP180;1474;51.460;7.150;2023-06-14T11:56:01;100682.00;;;23.20
80581;BMP180;1474;51.460;7.150;2023-06-14T11:58:29;100670.00;;;23.40
80581;BMP180;1474;51.460;7.150;2023-06-14T12:00:55;100671.00;;;24.30
80581;BMP180;1474;51.460;7.150;2023-06-14T12:03:25;100659.00;;;24.40
80581;BMP180;1474;51.460;7.150;2023-06-14T12:06:06;100673.00;;;23.90
80581;BMP180;1474;51.460;7.150;2023-06-14T12:08:37;100671.00;;;24.30
80581;BMP180;1474;51.460;7.150;2023-06-14T12:11:15;100680.00;;;23.70
80581;BMP180;1474;51.460;7.150;2023-06-14T12:13:43;100673.00;;;24.00
80581;BMP180;1474;51.460;7.150;2023-06-14T12:16:10;100677.00;;;23.80
80581;BMP180;1474;51.460;7.150;2023-06-14T12:18:39;100672.00;;;24.20
80581;BMP180;1474;51.460;7.150;2023-06-14T12:21:08;100672.00;;;24.20
80581;BMP180;1474;51.460;7.150;2023-06-14T12:23:48;100669.00;;;23.30
80581;BMP180;1474;51.460;7.150;2023-06-14T12:26:19;100667.00;;;23.40
80581;BMP180;1474;51.460;7.150;2023-06-14T12:28:47;100667.00;;;23.40
80581;BMP180;1474;51.460;7.150;2023-06-14T12:31:15;100660.00;;;24.80
80581;BMP180;1474;51.460;7.150;2023-06-14T12:33:42;100669.00;;;23.70
80581;BMP180;1474;51.460;7.150;2023-06-14T12:36:10;100671.00;;;24.20
80581;BMP180;1474;51.460;7.150;2023-06-14T12:38:37;100661.00;;;24.50
80581;BMP180;1474;51.460;7.150;2023-06-14T12:41:03;100668.00;;;24.40
80581;BMP180;1474;51.460;7.150;2023-06-14T12:43:29;100673.00;;;24.40
80581;BMP180;1474;51.460;7.150;2023-06-14T12:45:55;100666.00;;;23.90
80581;BMP180;1474;51.460;7.150;2023-06-14T12:48:21;100674.00;;;23.70
80581;BMP180;1474;51.460;7.150;2023-06-14T12:50:47;100663.00;;;24.60
80581;BMP180;1474;51.460;7.150;2023-06-14T12:53:14;100666.00;;;25.50
80581;BMP180;1474;51.460;7.150;2023-06-14T12:55:40;100722.00;;;23.80
80581;BMP180;1474;51.460;7.150;2023-06-14T12:58:06;100666.00;;;23.90
80581;BMP180;1474;51.460;7.150;2023-06-14T13:00:32;100664.00;;;24.50
80581;BMP180;1474;51.460;7.150;2023-06-14T13:02:58;100660.00;;;24.50
80581;BMP180;1474;51.460;7.150;2023-06-14T13:05:24;100672.00;;;24.20
80581;BMP180;1474;51.460;7.150;2023-06-14T13:07:50;100671.00;;;25.00
80581;BMP180;1474;51.460;7.150;2023-06-14T13:10:17;100682.00;;;23.70
80581;BMP180;1474;51.460;7.150;2023-06-14T13:12:43;100669.00;;;24.00
80581;BMP180;1474;51.460;7.150;2023-06-14T13:15:09;100673.00;;;23.40
80581;BMP180;1474;51.460;7.150;2023-06-14T13:17:36;100671.00;;;25.10
80581;BMP180;1474;51.460;7.150;2023-06-14T13:20:07;100668.00;;;24.50
80581;BMP180;1474;51.460;7.150;2023-06-14T13:22:34;100681.00;;;24.00
80581;BMP180;1474;51.460;7.150;2023-06-14T13:25:01;100669.00;;;23.40
80581;BMP180;1474;51.460;7.150;2023-06-14T13:27:27;100674.00;;;24.40
80581;BMP180;1474;51.460;7.150;2023-06-14T13:29:53;100670.00;;;24.40
80581;BMP180;1474;51.460;7.150;2023-06-14T13:32:21;100671.00;;;24.70
80581;BMP180;1474;51.460;7.150;2023-06-14T13:34:47;100664.00;;;25.00
80581;BMP180;1474;51.460;7.150;2023-06-14T13:37:13;100667.00;;;25.20
80581;BMP180;1474;51.460;7.150;2023-06-14T13:39:39;100670.00;;;25.20
80581;BMP180;1474;51.460;7.150;2023-06-14T13:42:05;100668.00;;;23.70
80581;BMP180;1474;51.460;7.150;2023-06-14T13:44:31;100680.00;;;24.70
80581;BMP180;1474;51.460;7.150;2023-06-14T13:46:57;100665.00;;;24.30
80581;BMP180;1474;51.460;7.150;2023-06-14T13:49:23;100695.00;;;24.80
80581;BMP180;1474;51.460;7.150;2023-06-14T13:51:49;100682.00;;;24.30
80581;BMP180;1474;51.460;7.150;2023-06-14T13:54:20;100668.00;;;24.80
80581;BMP180;1474;51.460;7.150;2023-06-14T13:56:47;100663.00;;;24.50
80581;BMP180;1474;51.460;7.150;2023-06-14T13:59:13;100663.00;;;24.30
80581;BMP180;1474;51.460;7.150;2023-06-14T14:01:39;100678.00;;;25.00
80581;BMP180;1474;51.460;7.150;2023-06-14T14:04:05;100665.00;;;24.70
80581;BMP180;1474;51.460;7.150;2023-06-14T14:06:31;100660.00;;;25.00
80581;BMP180;1474;51.460;7.150;2023-06-14T14:08:57;100667.00;;;25.40
80581;BMP180;1474;51.460;7.150;2023-06-14T14:11:23;100670.00;;;24.80
80581;BMP180;1474;51.460;7.150;2023-06-14T14:13:49;100665.00;;;24.30
80581;BMP180;1474;51.460;7.150;2023-06-14T14:16:15;100666.00;;;24.50
80581;BMP180;1474;51.460;7.150;2023-06-14T14:18:41;100697.00;;;24.60
80581;BMP180;1474;51.460;7.150;2023-06-14T14:21:07;100659.00;;;24.10